This is the latest recevied weather packets stored in our database for station/object OIII. If no packets are shown the sender has not sent any weather packets the latest 1 day(s).
| Time | Temp. | Humidity | Pressure | Rain* | Wind** | Luminosity | Snow |
|---|---|---|---|---|---|---|---|
| 1778386430 | 18.89° C | 24% | 1019.6 hPa | - | - | - | - |
| 1778385226 | 15.56° C | 38% | 1019 hPa | - | - | - | - |
| 1778384630 | 15.56° C | 38% | 1019 hPa | - | - | - | - |
| 1778384031 | 15.56° C | 38% | 1019 hPa | - | - | - | - |
| 1778383427 | 15.56° C | 38% | 1019 hPa | - | - | - | - |
| 1778382830 | 15.56° C | 38% | 1019 hPa | - | - | - | - |
| 1778382232 | 12.78° C | 50% | 1018.3 hPa | - | - | - | - |
| 1778381629 | 12.78° C | 50% | 1018.3 hPa | - | - | - | - |
| 1778381028 | 12.78° C | 50% | 1018.3 hPa | - | - | - | - |
| 1778380428 | 12.78° C | 50% | 1018.3 hPa | - | - | - | - |
| 1778379826 | 12.78° C | 50% | 1018.3 hPa | - | - | - | - |
| 1778379228 | 12.78° C | 50% | 1018.3 hPa | - | - | - | - |
| 1778378028 | 13.89° C | 44% | 1017.9 hPa | - | - | - | - |
| 1778377425 | 13.89° C | 44% | 1017.9 hPa | - | - | - | - |
| 1778376830 | 13.89° C | 44% | 1017.9 hPa | - | - | - | - |
| 1778376228 | 13.89° C | 44% | 1017.9 hPa | - | - | - | - |
| 1778375030 | 15° C | 38% | 1017.3 hPa | - | - | - | - |
| 1778373830 | 15° C | 38% | 1017.3 hPa | - | - | - | - |
| 1778373231 | 15° C | 38% | 1017.3 hPa | - | - | - | - |
| 1778372629 | 15° C | 38% | 1017.3 hPa | - | - | - | - |
| 1778372031 | 15° C | 38% | 1017.3 hPa | - | - | - | - |
| 1778371427 | 18.89° C | 13% | 1016.9 hPa | - | - | - | - |
| 1778369032 | 18.89° C | 13% | 1016.9 hPa | - | - | - | - |
| 1778363032 | 20.56° C | 9% | 1016.9 hPa | - | - | - | - |
| 1778358228 | 20.56° C | 11% | 1016.6 hPa | - | - | - | - |
* Rain since midnight (hover to see other rain measurements)
** Current wind speed in m/s (hover to see current wind gust speed)